createdAt,value
2019-05-02T00:00:13.515Z,6.95
2019-05-02T00:01:13.462Z,6.88
2019-05-02T00:02:13.426Z,6.67
2019-05-02T00:03:13.381Z,6.73
2019-05-02T00:04:20.131Z,6.66
2019-05-02T00:05:13.343Z,6.73
2019-05-02T00:06:14.255Z,6.67
2019-05-02T00:07:14.644Z,6.66
2019-05-02T00:08:13.233Z,6.64
2019-05-02T00:09:13.172Z,6.59
2019-05-02T00:10:13.106Z,6.58
2019-05-02T00:11:13.069Z,6.69
2019-05-02T00:12:13.057Z,6.76
2019-05-02T00:13:13.035Z,6.64
2019-05-02T00:14:12.958Z,6.58
2019-05-02T00:15:12.907Z,6.40
2019-05-02T00:16:14.164Z,6.37
2019-05-02T00:17:12.914Z,6.36
2019-05-02T00:18:12.807Z,6.40
2019-05-02T00:19:14.010Z,6.46
2019-05-02T00:20:12.751Z,6.52
2019-05-02T00:21:12.691Z,6.56
2019-05-02T00:22:17.274Z,6.58
2019-05-02T00:23:12.596Z,6.56
2019-05-02T00:24:12.573Z,6.61
2019-05-02T00:25:16.062Z,6.58
2019-05-02T00:26:12.475Z,6.54
2019-05-02T00:27:12.461Z,6.58
2019-05-02T00:28:13.895Z,6.49
2019-05-02T00:29:12.377Z,6.49
2019-05-02T00:30:12.326Z,6.43
2019-05-02T00:31:12.876Z,6.41
2019-05-02T00:32:12.271Z,6.30
2019-05-02T00:33:12.261Z,6.31
2019-05-02T00:34:12.770Z,6.40
2019-05-02T00:35:12.136Z,6.34
2019-05-02T00:36:12.107Z,6.22
2019-05-02T00:37:12.080Z,6.18
2019-05-02T00:38:12.042Z,6.14
2019-05-02T00:39:13.741Z,6.01
2019-05-02T00:40:11.929Z,6.01
2019-05-02T00:41:11.914Z,5.93
2019-05-02T00:42:13.028Z,5.83
2019-05-02T00:43:11.859Z,5.86
2019-05-02T00:44:12.354Z,5.96
2019-05-02T00:45:14.099Z,5.94
2019-05-02T00:46:11.730Z,5.79
2019-05-02T00:47:12.116Z,5.78
2019-05-02T00:48:11.630Z,5.74
2019-05-02T00:49:11.632Z,5.65
2019-05-02T00:50:12.690Z,5.56
2019-05-02T00:51:11.526Z,5.56
2019-05-02T00:52:11.501Z,5.57
2019-05-02T00:53:12.061Z,5.53
2019-05-02T00:54:11.398Z,5.45
2019-05-02T00:55:11.385Z,5.51
2019-05-02T00:56:11.319Z,5.71
2019-05-02T00:57:14.824Z,5.83
2019-05-02T00:58:11.237Z,5.85
2019-05-02T00:59:11.203Z,6.00
2019-05-02T01:00:13.401Z,5.96
2019-05-02T01:01:11.119Z,5.94
2019-05-02T01:02:11.071Z,6.01
2019-05-02T01:03:16.111Z,5.94
2019-05-02T01:04:10.987Z,6.01
2019-05-02T01:05:10.955Z,6.01
2019-05-02T01:06:14.491Z,5.96
2019-05-02T01:07:10.874Z,6.03
2019-05-02T01:08:10.839Z,6.06
2019-05-02T01:09:11.533Z,6.01
2019-05-02T01:10:10.769Z,6.06
2019-05-02T01:11:10.726Z,6.00
2019-05-02T01:12:10.684Z,6.18
2019-05-02T01:13:14.833Z,6.25
2019-05-02T01:14:10.620Z,6.15
2019-05-02T01:15:10.574Z,6.09
2019-05-02T01:16:10.513Z,6.03
2019-05-02T01:17:10.492Z,5.96
2019-05-02T01:18:10.469Z,5.97
2019-05-02T01:19:12.071Z,6.08
2019-05-02T01:20:10.374Z,5.91
2019-05-02T01:21:10.373Z,5.76
2019-05-02T01:22:15.345Z,5.76
2019-05-02T01:23:10.270Z,5.81
2019-05-02T01:24:10.209Z,5.78
2019-05-02T01:25:14.956Z,5.86
2019-05-02T01:26:10.144Z,5.81
2019-05-02T01:27:10.083Z,5.83
2019-05-02T01:28:12.897Z,5.64
2019-05-02T01:29:10.021Z,5.43
2019-05-02T01:30:09.985Z,5.40
2019-05-02T01:31:13.217Z,5.40
2019-05-02T01:32:09.890Z,5.60
2019-05-02T01:33:09.853Z,5.65
2019-05-02T01:34:13.074Z,5.68
2019-05-02T01:35:09.793Z,5.75
2019-05-02T01:36:09.766Z,5.86
2019-05-02T01:37:12.403Z,5.79
2019-05-02T01:38:09.671Z,5.65
2019-05-02T01:39:09.612Z,5.58
2019-05-02T01:40:13.091Z,5.58
2019-05-02T01:41:09.539Z,5.63
2019-05-02T01:42:09.517Z,5.45
2019-05-02T01:43:09.487Z,5.58
2019-05-02T01:44:09.417Z,5.76
2019-05-02T01:45:11.276Z,5.63
2019-05-02T01:46:09.330Z,5.49
2019-05-02T01:47:09.283Z,5.45
2019-05-02T01:48:09.810Z,5.53
2019-05-02T01:49:09.228Z,5.54
2019-05-02T01:50:09.194Z,5.49
2019-05-02T01:51:10.060Z,5.45
2019-05-02T01:52:09.120Z,5.42
2019-05-02T01:53:09.063Z,5.42
2019-05-02T01:54:10.124Z,5.30
2019-05-02T01:55:08.961Z,5.46
2019-05-02T01:56:08.946Z,5.31
2019-05-02T01:57:10.023Z,5.36
2019-05-02T01:58:08.873Z,5.56
2019-05-02T01:59:08.857Z,5.71
2019-05-02T02:00:09.583Z,5.79
2019-05-02T02:01:08.806Z,5.79
2019-05-02T02:02:08.700Z,5.63
2019-05-02T02:03:09.152Z,5.38
2019-05-02T02:04:08.616Z,5.49
2019-05-02T02:05:08.576Z,5.56
2019-05-02T02:06:10.030Z,5.36
2019-05-02T02:07:08.503Z,5.21
2019-05-02T02:08:08.475Z,5.24
2019-05-02T02:09:09.793Z,5.27
2019-05-02T02:10:08.383Z,5.21
2019-05-02T02:11:08.347Z,5.09
2019-05-02T02:12:09.853Z,5.04
2019-05-02T02:13:08.262Z,5.03
2019-05-02T02:14:13.446Z,4.96
2019-05-02T02:15:08.200Z,5.17
2019-05-02T02:16:08.163Z,5.12
2019-05-02T02:17:10.257Z,5.28
2019-05-02T02:18:08.058Z,5.27
2019-05-02T02:19:08.046Z,5.20
2019-05-02T02:20:09.820Z,5.18
2019-05-02T02:21:07.954Z,5.28
2019-05-02T02:22:07.911Z,5.33
2019-05-02T02:23:10.281Z,5.38
2019-05-02T02:24:07.892Z,5.33
2019-05-02T02:25:07.773Z,5.27
2019-05-02T02:26:12.057Z,5.18
2019-05-02T02:27:07.756Z,5.12
2019-05-02T02:28:07.678Z,5.12
2019-05-02T02:29:09.067Z,4.96
2019-05-02T02:30:07.589Z,5.02
2019-05-02T02:31:07.954Z,5.02
2019-05-02T02:32:07.502Z,5.13
2019-05-02T02:33:09.459Z,5.15
2019-05-02T02:34:07.415Z,5.25
2019-05-02T02:35:10.118Z,5.12
2019-05-02T02:36:07.343Z,5.21
2019-05-02T02:37:12.462Z,5.24
2019-05-02T02:38:07.258Z,5.31
2019-05-02T02:39:13.492Z,5.30
2019-05-02T02:40:07.203Z,5.22
2019-05-02T02:41:13.074Z,5.10
2019-05-02T02:42:07.092Z,5.04
2019-05-02T02:43:29.831Z,5.04
2019-05-02T02:44:07.040Z,5.04
2019-05-02T02:45:12.897Z,5.15
2019-05-02T02:46:06.949Z,5.27
2019-05-02T02:47:11.966Z,5.39
2019-05-02T02:48:06.851Z,5.38
2019-05-02T02:49:06.828Z,5.42
2019-05-02T02:50:06.800Z,5.18
2019-05-02T02:51:06.729Z,5.06
2019-05-02T02:52:06.947Z,5.06
2019-05-02T02:53:06.644Z,5.06
2019-05-02T02:54:06.621Z,5.07
2019-05-02T02:55:06.589Z,5.07
2019-05-02T02:56:06.540Z,4.91
2019-05-02T02:57:06.512Z,4.91
2019-05-02T02:58:06.643Z,5.02
2019-05-02T02:59:06.422Z,5.02
2019-05-02T03:00:08.345Z,4.92
2019-05-02T03:01:06.369Z,4.96
2019-05-02T03:02:10.045Z,5.02
2019-05-02T03:03:06.254Z,4.89
2019-05-02T03:04:09.105Z,4.84
2019-05-02T03:05:06.197Z,4.73
2019-05-02T03:06:08.221Z,4.66
2019-05-02T03:07:06.122Z,4.67
2019-05-02T03:08:07.275Z,4.70
2019-05-02T03:09:06.021Z,4.63
2019-05-02T03:10:08.115Z,4.70
2019-05-02T03:11:05.933Z,4.66
2019-05-02T03:12:05.893Z,4.59
2019-05-02T03:13:05.865Z,4.48
2019-05-02T03:14:09.199Z,4.37
2019-05-02T03:15:05.797Z,4.37
2019-05-02T03:16:07.112Z,4.32
2019-05-02T03:17:05.724Z,4.42
2019-05-02T03:18:05.659Z,4.48
2019-05-02T03:19:05.625Z,4.60
2019-05-02T03:20:05.603Z,4.62
2019-05-02T03:21:05.534Z,4.54
2019-05-02T03:22:05.499Z,4.50
2019-05-02T03:23:05.454Z,4.42
2019-05-02T03:24:05.783Z,4.36
2019-05-02T03:25:05.386Z,4.58
2019-05-02T03:26:07.897Z,4.67
2019-05-02T03:27:05.295Z,4.65
2019-05-02T03:28:05.260Z,4.70
2019-05-02T03:29:05.209Z,4.58
2019-05-02T03:30:05.176Z,4.63
2019-05-02T03:31:21.762Z,4.70
2019-05-02T03:32:16.627Z,4.73
2019-05-02T03:33:10.856Z,4.59
2019-05-02T03:34:05.018Z,4.63
2019-05-02T03:35:04.972Z,4.59
2019-05-02T03:36:04.929Z,4.63
2019-05-02T03:37:10.216Z,4.67
2019-05-02T03:38:04.865Z,4.67
2019-05-02T03:39:13.511Z,4.60
2019-05-02T03:40:04.770Z,4.50
2019-05-02T03:41:04.742Z,4.40
2019-05-02T03:42:05.099Z,4.52
2019-05-02T03:43:04.645Z,4.67
2019-05-02T03:44:11.202Z,4.60
2019-05-02T03:45:05.262Z,4.66
2019-05-02T03:46:04.535Z,4.62
2019-05-02T03:47:05.003Z,4.52
2019-05-02T03:48:04.445Z,4.54
2019-05-02T03:49:07.211Z,4.50
2019-05-02T03:50:08.335Z,4.48
2019-05-02T03:51:05.232Z,4.59
2019-05-02T03:52:05.838Z,4.48
2019-05-02T03:53:04.246Z,4.48
2019-05-02T03:54:07.519Z,4.52
2019-05-02T03:55:04.166Z,4.50
2019-05-02T03:56:10.556Z,4.59
2019-05-02T03:57:04.080Z,4.63
2019-05-02T03:58:12.809Z,4.60
2019-05-02T03:59:04.002Z,4.67
2019-05-02T04:00:03.972Z,4.73
2019-05-02T04:01:04.089Z,4.73
2019-05-02T04:02:03.914Z,4.66
2019-05-02T04:03:03.852Z,4.86
2019-05-02T04:04:03.820Z,4.85
2019-05-02T04:05:03.773Z,4.88
2019-05-02T04:06:03.722Z,4.92
2019-05-02T04:07:03.708Z,4.85
2019-05-02T04:08:03.635Z,4.80
2019-05-02T04:09:03.611Z,4.84
2019-05-02T04:10:03.566Z,4.84
2019-05-02T04:11:03.598Z,4.92
2019-05-02T04:12:03.514Z,4.89
2019-05-02T04:13:03.439Z,4.88
2019-05-02T04:14:15.259Z,4.94
2019-05-02T04:15:03.351Z,4.94
2019-05-02T04:16:14.290Z,4.99
2019-05-02T04:17:03.273Z,4.94
2019-05-02T04:18:08.446Z,4.97
2019-05-02T04:19:03.191Z,5.13
2019-05-02T04:20:09.309Z,5.13
2019-05-02T04:21:03.114Z,5.13
2019-05-02T04:22:08.380Z,5.27
2019-05-02T04:23:03.055Z,5.24
2019-05-02T04:24:13.048Z,5.31
2019-05-02T04:25:06.206Z,5.27
2019-05-02T04:26:06.661Z,5.43
2019-05-02T04:27:02.879Z,5.35
2019-05-02T04:28:05.894Z,5.31
2019-05-02T04:29:02.804Z,5.28
2019-05-02T04:30:10.872Z,5.39
2019-05-02T04:31:02.730Z,5.45
2019-05-02T04:32:04.393Z,5.40
2019-05-02T04:33:02.655Z,5.35
2019-05-02T04:34:14.139Z,5.38
2019-05-02T04:35:02.562Z,5.48
2019-05-02T04:36:14.082Z,5.56
2019-05-02T04:37:03.986Z,5.68
2019-05-02T04:38:08.751Z,5.89
2019-05-02T04:39:05.819Z,5.97
2019-05-02T04:40:03.947Z,6.00
2019-05-02T04:41:02.362Z,5.86
2019-05-02T04:42:05.338Z,5.99
2019-05-02T04:43:08.163Z,5.86
2019-05-02T04:44:02.216Z,5.90
2019-05-02T04:45:21.137Z,6.04
2019-05-02T04:46:02.138Z,6.17
2019-05-02T04:47:10.977Z,6.15
2019-05-02T04:48:04.051Z,6.19
2019-05-02T04:49:02.009Z,6.19
2019-05-02T04:50:07.621Z,6.31
2019-05-02T04:51:10.179Z,6.25
2019-05-02T04:52:07.903Z,6.38
2019-05-02T04:53:01.889Z,6.51
2019-05-02T04:54:01.808Z,6.48
2019-05-02T04:55:14.645Z,6.55
2019-05-02T04:56:06.889Z,6.54
2019-05-02T04:57:02.394Z,6.62
2019-05-02T04:58:01.976Z,6.62
2019-05-02T04:59:07.945Z,6.67
2019-05-02T05:00:06.376Z,6.74
2019-05-02T05:01:02.032Z,6.74
2019-05-02T05:02:01.727Z,6.84
2019-05-02T05:03:06.410Z,6.85
2019-05-02T05:04:03.116Z,6.80
2019-05-02T05:05:01.391Z,7.03
2019-05-02T05:06:07.140Z,7.09
2019-05-02T05:07:01.516Z,7.30
2019-05-02T05:08:01.254Z,7.52
2019-05-02T05:09:03.970Z,7.67
2019-05-02T05:10:03.303Z,7.63
2019-05-02T05:11:01.144Z,7.60
2019-05-02T05:12:02.636Z,7.74
2019-05-02T05:13:01.060Z,7.75
2019-05-02T05:14:01.021Z,7.75
2019-05-02T05:15:00.981Z,7.72
2019-05-02T05:16:02.882Z,7.82
2019-05-02T05:17:00.906Z,7.90
2019-05-02T05:18:04.656Z,8.00
2019-05-02T05:19:00.853Z,7.92
2019-05-02T05:20:10.472Z,7.87
2019-05-02T05:21:00.751Z,8.01
2019-05-02T05:22:04.823Z,7.95
2019-05-02T05:23:00.685Z,8.01
2019-05-02T05:24:01.441Z,8.22
2019-05-02T05:25:00.620Z,8.16
2019-05-02T05:26:03.729Z,8.25
2019-05-02T05:27:00.527Z,8.37
2019-05-02T05:28:05.605Z,8.43
2019-05-02T05:29:00.469Z,8.58
2019-05-02T05:30:08.075Z,8.53
2019-05-02T05:31:00.395Z,8.65
2019-05-02T05:32:05.473Z,8.84
2019-05-02T05:33:00.413Z,8.89
2019-05-02T05:34:00.646Z,8.87
2019-05-02T05:35:03.283Z,8.98
2019-05-02T05:36:00.195Z,8.99
2019-05-02T05:37:03.538Z,9.11
2019-05-02T05:38:00.189Z,9.21
2019-05-02T05:39:03.051Z,9.29
2019-05-02T05:40:00.049Z,9.24
2019-05-02T05:41:03.106Z,9.36
2019-05-02T05:41:59.966Z,9.38
2019-05-02T05:43:02.710Z,9.42
2019-05-02T05:43:59.903Z,9.40
2019-05-02T05:45:03.825Z,9.54
2019-05-02T05:46:09.255Z,9.53
2019-05-02T05:46:59.807Z,9.60
2019-05-02T05:48:01.177Z,9.71
2019-05-02T05:48:59.720Z,9.68
2019-05-02T05:50:01.247Z,9.83
2019-05-02T05:50:59.653Z,9.89
2019-05-02T05:52:02.928Z,9.99
2019-05-02T05:52:59.621Z,10.09
2019-05-02T05:54:02.937Z,10.27
2019-05-02T05:54:59.518Z,10.45
2019-05-02T05:56:02.488Z,10.53
2019-05-02T05:56:59.424Z,10.64
2019-05-02T05:58:01.366Z,10.64
2019-05-02T05:58:59.400Z,10.63
2019-05-02T06:00:03.713Z,10.66
2019-05-02T06:00:59.320Z,10.79
2019-05-02T06:01:59.241Z,10.81
2019-05-02T06:03:10.159Z,10.96
2019-05-02T06:03:59.195Z,11.02
2019-05-02T06:05:02.719Z,10.97
2019-05-02T06:05:59.136Z,11.19
2019-05-02T06:07:03.108Z,11.42
2019-05-02T06:07:59.047Z,11.44
2019-05-02T06:08:59.008Z,11.67
2019-05-02T06:10:02.340Z,11.79
2019-05-02T06:10:58.919Z,11.95
2019-05-02T06:11:58.927Z,12.07
2019-05-02T06:12:58.890Z,11.99
2019-05-02T06:13:58.872Z,12.12
2019-05-02T06:15:01.582Z,12.17
2019-05-02T06:16:02.803Z,12.27
2019-05-02T06:16:58.786Z,12.21
2019-05-02T06:18:00.096Z,12.23
2019-05-02T06:18:58.682Z,12.23
2019-05-02T06:19:58.656Z,12.41
2019-05-02T06:21:03.115Z,12.37
2019-05-02T06:21:58.555Z,12.46
2019-05-02T06:23:00.087Z,12.49
2019-05-02T06:23:58.524Z,12.41
2019-05-02T06:24:58.473Z,12.49
2019-05-02T06:25:58.424Z,12.68
2019-05-02T06:26:58.389Z,12.68
2019-05-02T06:28:00.178Z,12.74
2019-05-02T06:28:58.326Z,12.65
2019-05-02T06:29:58.269Z,12.39
2019-05-02T06:31:02.238Z,12.31
2019-05-02T06:31:58.239Z,12.37
2019-05-02T06:32:58.182Z,12.39
2019-05-02T06:34:02.154Z,12.45
2019-05-02T06:34:58.119Z,12.47
2019-05-02T06:36:01.010Z,12.60
2019-05-02T06:36:58.064Z,12.74
2019-05-02T06:37:57.985Z,12.62
2019-05-02T06:38:57.983Z,12.47
2019-05-02T06:39:57.921Z,12.89
2019-05-02T06:40:57.904Z,12.97
2019-05-02T06:41:58.693Z,13.12
2019-05-02T06:42:57.831Z,13.33
2019-05-02T06:43:57.847Z,13.49
2019-05-02T06:44:59.777Z,13.84
2019-05-02T06:45:57.719Z,14.07
2019-05-02T06:46:59.116Z,14.06
2019-05-02T06:47:57.689Z,14.25
2019-05-02T06:48:57.627Z,14.28
2019-05-02T06:50:01.064Z,14.06
2019-05-02T06:50:57.584Z,14.20
2019-05-02T06:51:57.700Z,14.28
2019-05-02T06:52:57.570Z,14.02
2019-05-02T06:53:57.491Z,14.03
2019-05-02T06:54:57.920Z,13.85
2019-05-02T06:55:57.391Z,14.42
2019-05-02T06:56:57.359Z,14.40
2019-05-02T06:58:02.804Z,14.35
2019-05-02T06:58:57.285Z,14.81
2019-05-02T06:59:57.256Z,15.17
2019-05-02T07:00:58.947Z,15.14
2019-05-02T07:01:58.678Z,14.94
2019-05-02T07:02:57.169Z,14.65
2019-05-02T07:03:57.154Z,14.89
2019-05-02T07:04:57.134Z,14.96
2019-05-02T07:05:58.678Z,14.77
2019-05-02T07:06:59.189Z,14.98
2019-05-02T07:07:57.087Z,15.14
2019-05-02T07:08:59.645Z,15.43
2019-05-02T07:09:57.244Z,15.80
2019-05-02T07:11:01.333Z,16.08
2019-05-02T07:11:58.624Z,16.48
2019-05-02T07:13:10.044Z,16.53
2019-05-02T07:13:56.821Z,16.64
2019-05-02T07:15:01.515Z,16.66
2019-05-02T07:15:56.787Z,16.31
2019-05-02T07:16:56.734Z,16.71
2019-05-02T07:17:56.793Z,16.85
2019-05-02T07:18:56.693Z,17.18
2019-05-02T07:19:58.901Z,17.84
2019-05-02T07:20:56.630Z,17.90
2019-05-02T07:21:59.046Z,17.21
2019-05-02T07:22:56.575Z,16.76
2019-05-02T07:23:56.519Z,16.53
2019-05-02T07:24:56.482Z,16.81
2019-05-02T07:25:56.464Z,17.40
2019-05-02T07:26:56.848Z,17.55
2019-05-02T07:27:56.411Z,18.02
2019-05-02T07:28:56.391Z,18.81
2019-05-02T07:29:57.636Z,18.44
2019-05-02T07:30:56.347Z,18.82
2019-05-02T07:31:56.306Z,18.90
2019-05-02T07:33:00.825Z,18.42
2019-05-02T07:33:56.260Z,17.96
2019-05-02T07:34:56.226Z,17.95
2019-05-02T07:36:00.066Z,18.54
2019-05-02T07:36:56.204Z,18.91
2019-05-02T07:37:56.155Z,19.28
2019-05-02T07:38:57.561Z,19.59
2019-05-02T07:39:56.096Z,19.31
2019-05-02T07:40:56.062Z,19.04
2019-05-02T07:42:00.522Z,19.11
2019-05-02T07:42:56.016Z,18.66
2019-05-02T07:43:57.419Z,18.52
2019-05-02T07:44:55.961Z,18.95
2019-05-02T07:45:56.095Z,19.28
2019-05-02T07:46:56.994Z,18.88
2019-05-02T07:47:55.903Z,18.08
2019-05-02T07:48:56.602Z,17.87
2019-05-02T07:49:55.898Z,18.02
2019-05-02T07:50:56.337Z,18.69
2019-05-02T07:51:57.565Z,18.75
2019-05-02T07:52:55.791Z,19.23
2019-05-02T07:53:56.056Z,18.84
2019-05-02T07:54:56.096Z,19.19
2019-05-02T07:55:55.737Z,18.60
2019-05-02T07:56:55.675Z,18.55
2019-05-02T07:57:55.644Z,19.50
2019-05-02T07:58:55.618Z,19.91
2019-05-02T08:00:00.492Z,19.81
2019-05-02T08:00:55.586Z,19.71
2019-05-02T08:01:56.398Z,19.48
2019-05-02T08:02:57.909Z,19.50
2019-05-02T08:03:55.501Z,19.59
2019-05-02T08:04:55.489Z,18.91
2019-05-02T08:05:58.563Z,18.95
2019-05-02T08:06:55.436Z,18.39
2019-05-02T08:07:55.473Z,18.70
2019-05-02T08:08:55.387Z,19.50
2019-05-02T08:09:55.364Z,19.41
2019-05-02T08:11:01.745Z,19.16
2019-05-02T08:11:55.323Z,19.28
2019-05-02T08:12:55.316Z,19.78
2019-05-02T08:14:00.116Z,19.46
2019-05-02T08:14:55.254Z,19.40
2019-05-02T08:15:55.262Z,19.18
2019-05-02T08:17:05.439Z,19.76
2019-05-02T08:17:55.373Z,19.65
2019-05-02T08:18:55.163Z,19.46
2019-05-02T08:19:55.144Z,18.91
2019-05-02T08:20:55.946Z,19.25
2019-05-02T08:21:55.111Z,19.16
2019-05-02T08:22:55.089Z,18.65
2019-05-02T08:23:57.196Z,18.88
2019-05-02T08:24:55.017Z,19.23
2019-05-02T08:25:55.002Z,19.59
2019-05-02T08:26:58.192Z,20.13
2019-05-02T08:27:54.960Z,20.03
2019-05-02T08:28:54.934Z,20.02
2019-05-02T08:29:54.915Z,19.77
2019-05-02T08:30:54.944Z,19.28
2019-05-02T08:31:54.882Z,19.37
2019-05-02T08:32:54.833Z,19.40
2019-05-02T08:33:54.869Z,19.71
2019-05-02T08:34:54.811Z,20.11
2019-05-02T08:35:54.852Z,20.10
2019-05-02T08:36:58.810Z,20.33
2019-05-02T08:37:56.138Z,20.58
2019-05-02T08:38:55.442Z,20.42
2019-05-02T08:39:54.696Z,19.84
2019-05-02T08:40:54.666Z,19.74
2019-05-02T08:41:56.742Z,20.03
2019-05-02T08:42:54.688Z,20.54
2019-05-02T08:43:54.595Z,20.41
2019-05-02T08:44:56.301Z,20.47
2019-05-02T08:45:54.579Z,20.79
2019-05-02T08:46:54.569Z,20.91
2019-05-02T08:47:54.583Z,21.03
2019-05-02T08:48:54.558Z,21.07
2019-05-02T08:49:56.482Z,20.85
2019-05-02T08:50:54.473Z,21.17
2019-05-02T08:51:54.445Z,21.49
2019-05-02T08:52:54.432Z,21.32
2019-05-02T08:53:56.876Z,21.16
2019-05-02T08:54:54.404Z,21.24
2019-05-02T08:55:54.359Z,21.38
2019-05-02T08:56:59.015Z,21.42
2019-05-02T08:57:54.293Z,21.53
2019-05-02T08:58:54.275Z,22.07
2019-05-02T08:59:55.346Z,20.66
2019-05-02T09:00:54.254Z,21.12
2019-05-02T09:01:54.264Z,21.01
2019-05-02T09:02:56.996Z,21.17
2019-05-02T09:03:56.448Z,20.94
2019-05-02T09:04:58.666Z,21.10
2019-05-02T09:06:05.254Z,21.44
2019-05-02T09:06:58.702Z,21.44
2019-05-02T09:07:54.078Z,21.52
2019-05-02T09:08:54.085Z,21.29
2019-05-02T09:09:55.568Z,21.35
2019-05-02T09:10:54.013Z,21.46
2019-05-02T09:12:04.844Z,21.49
2019-05-02T09:12:54.021Z,21.82
2019-05-02T09:13:54.039Z,21.80
2019-05-02T09:14:53.960Z,21.32
2019-05-02T09:15:54.403Z,21.40
2019-05-02T09:16:53.895Z,21.17
2019-05-02T09:17:56.449Z,20.80
2019-05-02T09:18:54.293Z,20.66
2019-05-02T09:20:02.193Z,21.22
2019-05-02T09:20:56.464Z,21.79
2019-05-02T09:21:53.775Z,22.22
2019-05-02T09:22:55.977Z,20.28
2019-05-02T09:23:53.797Z,20.35
2019-05-02T09:24:53.710Z,20.62
2019-05-02T09:25:53.700Z,21.24
2019-05-02T09:26:53.670Z,21.71
2019-05-02T09:27:53.686Z,22.10
2019-05-02T09:28:56.226Z,22.64
2019-05-02T09:29:53.656Z,22.49
2019-05-02T09:30:57.529Z,22.06
2019-05-02T09:31:53.589Z,22.24
2019-05-02T09:32:57.063Z,21.61
2019-05-02T09:33:55.573Z,22.12
2019-05-02T09:34:56.730Z,21.22
2019-05-02T09:35:53.451Z,20.38
2019-05-02T09:36:53.482Z,19.61
2019-05-02T09:37:53.480Z,19.28
2019-05-02T09:38:57.466Z,19.84
2019-05-02T09:39:53.385Z,20.41
2019-05-02T09:40:56.169Z,20.64
2019-05-02T09:41:53.380Z,20.99
2019-05-02T09:42:58.504Z,21.86
2019-05-02T09:43:53.310Z,21.83
2019-05-02T09:44:56.793Z,22.12
2019-05-02T09:45:53.287Z,22.05
2019-05-02T09:46:57.039Z,21.91
2019-05-02T09:48:01.480Z,22.21
2019-05-02T09:48:57.110Z,22.12
2019-05-02T09:49:53.286Z,22.46
2019-05-02T09:50:53.195Z,22.49
2019-05-02T09:51:59.080Z,21.91
2019-05-02T09:52:53.149Z,21.68
2019-05-02T09:53:57.126Z,22.07
2019-05-02T09:54:53.083Z,21.91
2019-05-02T09:55:57.303Z,21.59
2019-05-02T09:56:53.052Z,21.50
2019-05-02T09:57:53.018Z,21.47
2019-05-02T09:58:55.322Z,21.82
2019-05-02T09:59:55.690Z,22.00
2019-05-02T10:00:52.943Z,22.33
2019-05-02T10:01:52.920Z,22.28
2019-05-02T10:02:52.881Z,22.37
2019-05-02T10:03:52.895Z,22.55
2019-05-02T10:04:52.828Z,22.24
2019-05-02T10:05:52.828Z,22.10
2019-05-02T10:06:52.832Z,22.46
2019-05-02T10:07:57.298Z,22.09
2019-05-02T10:08:52.776Z,21.91
2019-05-02T10:09:52.738Z,21.54
2019-05-02T10:10:52.729Z,21.43
2019-05-02T10:11:52.741Z,20.91
2019-05-02T10:12:52.659Z,21.25
2019-05-02T10:13:55.269Z,21.29
2019-05-02T10:14:52.784Z,21.32
2019-05-02T10:15:52.913Z,21.53
2019-05-02T10:16:53.074Z,21.52
2019-05-02T10:17:52.567Z,21.75
2019-05-02T10:18:52.548Z,21.83
2019-05-02T10:19:56.752Z,21.43
2019-05-02T10:20:52.625Z,22.02
2019-05-02T10:21:56.195Z,22.39
2019-05-02T10:22:52.969Z,21.40
2019-05-02T10:23:58.992Z,20.50
2019-05-02T10:24:52.409Z,20.76
2019-05-02T10:25:52.369Z,20.99
2019-05-02T10:26:55.218Z,21.10
2019-05-02T10:27:52.474Z,21.43
2019-05-02T10:28:53.354Z,21.54
2019-05-02T10:29:52.573Z,21.44
2019-05-02T10:30:56.428Z,21.83
2019-05-02T10:31:52.745Z,22.31
2019-05-02T10:32:57.099Z,22.33
2019-05-02T10:33:52.926Z,22.03
2019-05-02T10:34:55.851Z,21.24
2019-05-02T10:35:52.639Z,21.44
2019-05-02T10:36:58.715Z,21.52
2019-05-02T10:37:52.200Z,21.29
2019-05-02T10:38:54.816Z,21.37
2019-05-02T10:39:53.230Z,21.35
2019-05-02T10:40:54.757Z,21.44
2019-05-02T10:41:52.630Z,21.56
2019-05-02T10:42:52.303Z,21.64
2019-05-02T10:43:55.886Z,21.13
2019-05-02T10:44:52.197Z,20.66
2019-05-02T10:45:56.225Z,20.99
2019-05-02T10:46:52.367Z,21.14
2019-05-02T10:47:52.710Z,21.13
2019-05-02T10:48:52.525Z,21.53
2019-05-02T10:49:52.758Z,20.64
2019-05-02T10:50:52.525Z,20.61
2019-05-02T10:51:53.676Z,21.21
2019-05-02T10:52:52.696Z,21.34
2019-05-02T10:53:55.386Z,21.80
2019-05-02T10:54:52.809Z,21.90
2019-05-02T10:55:52.311Z,22.10
2019-05-02T10:56:51.906Z,22.43
2019-05-02T10:57:52.673Z,22.88
2019-05-02T10:58:52.291Z,23.05
2019-05-02T10:59:52.536Z,22.30
2019-05-02T11:00:52.354Z,22.12
2019-05-02T11:01:52.198Z,21.71
2019-05-02T11:02:52.450Z,21.58
2019-05-02T11:03:51.765Z,20.64
2019-05-02T11:04:52.494Z,20.87
2019-05-02T11:05:52.813Z,21.16
2019-05-02T11:06:51.793Z,21.32
2019-05-02T11:07:52.304Z,21.86
2019-05-02T11:08:52.503Z,22.24
2019-05-02T11:09:52.516Z,22.43
2019-05-02T11:10:52.710Z,21.61
2019-05-02T11:11:51.998Z,21.64
2019-05-02T11:12:52.664Z,21.24
2019-05-02T11:13:53.363Z,21.12
2019-05-02T11:14:51.737Z,21.58
2019-05-02T11:15:52.514Z,22.02
2019-05-02T11:16:52.512Z,22.22
2019-05-02T11:17:52.891Z,22.42
2019-05-02T11:18:52.494Z,22.39
2019-05-02T11:19:52.364Z,22.39
2019-05-02T11:20:52.502Z,23.00
2019-05-02T11:21:56.397Z,23.25
2019-05-02T11:22:52.658Z,23.48
2019-05-02T11:23:52.585Z,22.70
2019-05-02T11:24:52.301Z,23.05
2019-05-02T11:25:52.653Z,23.17
2019-05-02T11:26:52.687Z,23.97
2019-05-02T11:27:52.509Z,23.57
2019-05-02T11:28:52.164Z,23.07
2019-05-02T11:29:52.574Z,22.27
2019-05-02T11:30:52.456Z,21.61
2019-05-02T11:31:52.067Z,21.14
2019-05-02T11:32:52.125Z,21.13
2019-05-02T11:33:52.761Z,21.62
2019-05-02T11:34:52.401Z,21.50
2019-05-02T11:35:51.574Z,21.32
2019-05-02T11:36:52.486Z,21.07
2019-05-02T11:37:51.676Z,21.38
2019-05-02T11:39:00.619Z,21.64
2019-05-02T11:39:53.393Z,22.09
2019-05-02T11:40:52.099Z,21.94
2019-05-02T11:41:52.568Z,22.12
2019-05-02T11:42:52.164Z,21.99
2019-05-02T11:43:54.176Z,22.20
2019-05-02T11:44:52.293Z,22.33
2019-05-02T11:45:54.209Z,22.14
2019-05-02T11:46:52.060Z,21.86
2019-05-02T11:47:50.439Z,21.71
2019-05-02T11:48:56.177Z,21.19
2019-05-02T11:49:52.104Z,21.12
2019-05-02T11:50:52.332Z,21.09
2019-05-02T11:51:55.334Z,21.01
2019-05-02T11:52:52.307Z,20.76
2019-05-02T11:53:52.415Z,20.50
2019-05-02T11:54:52.043Z,20.13
2019-05-02T11:55:50.259Z,20.10
2019-05-02T11:56:51.301Z,20.01
2019-05-02T11:57:52.241Z,20.21
2019-05-02T11:58:50.319Z,20.13
2019-05-02T11:59:51.962Z,20.24
2019-05-02T12:00:52.086Z,20.21
2019-05-02T12:01:59.119Z,20.24
2019-05-02T12:02:54.195Z,20.11
2019-05-02T12:03:52.251Z,20.32
2019-05-02T12:04:52.469Z,20.06
2019-05-02T12:05:51.863Z,19.99
2019-05-02T12:06:59.013Z,19.98
2019-05-02T12:07:49.949Z,20.06
2019-05-02T12:08:49.919Z,20.06
2019-05-02T12:09:55.144Z,19.87
2019-05-02T12:10:51.802Z,19.74
2019-05-02T12:11:54.969Z,19.71
2019-05-02T12:12:49.896Z,19.62
2019-05-02T12:13:52.721Z,19.69
2019-05-02T12:14:49.790Z,19.51
2019-05-02T12:15:51.760Z,19.46
2019-05-02T12:16:49.710Z,19.48
2019-05-02T12:17:51.570Z,19.71
2019-05-02T12:18:49.664Z,19.84
2019-05-02T12:19:49.654Z,20.06
2019-05-02T12:20:51.785Z,20.02
2019-05-02T12:21:49.641Z,20.59
2019-05-02T12:22:49.586Z,21.17
2019-05-02T12:23:49.548Z,21.43
2019-05-02T12:24:49.501Z,21.54
2019-05-02T12:25:49.633Z,21.44
2019-05-02T12:26:49.633Z,21.38
2019-05-02T12:27:49.430Z,21.44
2019-05-02T12:28:49.445Z,21.03
2019-05-02T12:29:50.205Z,21.13
2019-05-02T12:30:51.615Z,21.04
2019-05-02T12:31:52.692Z,20.98
2019-05-02T12:32:49.298Z,21.31
2019-05-02T12:33:49.286Z,21.21
2019-05-02T12:34:49.271Z,20.72
2019-05-02T12:35:49.274Z,21.24
2019-05-02T12:36:49.269Z,21.17
2019-05-02T12:37:52.418Z,21.38
2019-05-02T12:38:49.231Z,21.24
2019-05-02T12:39:49.129Z,21.50
2019-05-02T12:40:49.117Z,21.37
2019-05-02T12:41:49.391Z,21.53
2019-05-02T12:42:49.045Z,21.40
2019-05-02T12:43:49.079Z,21.27
2019-05-02T12:44:49.045Z,20.80
2019-05-02T12:45:49.011Z,21.07
2019-05-02T12:46:48.966Z,20.54
2019-05-02T12:47:48.964Z,20.80
2019-05-02T12:48:48.926Z,20.58
2019-05-02T12:49:48.879Z,20.92
2019-05-02T12:50:48.837Z,20.80
2019-05-02T12:51:49.534Z,21.27
2019-05-02T12:52:48.791Z,21.22
2019-05-02T12:53:48.781Z,21.34
2019-05-02T12:54:48.763Z,20.94
2019-05-02T12:55:48.812Z,20.98
2019-05-02T12:56:48.697Z,20.91
2019-05-02T12:57:48.732Z,20.91
2019-05-02T12:58:48.640Z,20.66
2019-05-02T12:59:48.687Z,20.13
2019-05-02T13:00:48.575Z,20.10
2019-05-02T13:01:48.648Z,20.28
2019-05-02T13:02:48.554Z,20.32
2019-05-02T13:03:48.498Z,20.43